sensor_id;sensor_type;location;lat;lon;timestamp;pressure;altitude;pressure_sealevel;temperature;humidity
23616;BME280;11985;49.404;7.734;2024-01-27T00:01:43;99041.53;;;-1.54;100.00
23616;BME280;11985;49.404;7.734;2024-01-27T00:06:46;99051.34;;;-1.61;100.00
23616;BME280;11985;49.404;7.734;2024-01-27T00:11:48;99050.50;;;-1.62;100.00
23616;BME280;11985;49.404;7.734;2024-01-27T00:16:50;99053.09;;;-1.62;100.00
23616;BME280;11985;49.404;7.734;2024-01-27T00:21:53;99048.69;;;-1.60;100.00
23616;BME280;11985;49.404;7.734;2024-01-27T00:26:54;99047.88;;;-1.60;100.00
23616;BME280;11985;49.404;7.734;2024-01-27T00:31:56;99034.84;;;-1.58;100.00
23616;BME280;11985;49.404;7.734;2024-01-27T00:36:59;99043.34;;;-1.56;100.00
23616;BME280;11985;49.404;7.734;2024-01-27T00:42:00;99043.28;;;-1.55;100.00
23616;BME280;11985;49.404;7.734;2024-01-27T00:47:03;99052.59;;;-1.52;100.00
23616;BME280;11985;49.404;7.734;2024-01-27T00:52:06;99047.03;;;-1.61;100.00
23616;BME280;11985;49.404;7.734;2024-01-27T00:57:07;99058.63;;;-1.83;100.00
23616;BME280;11985;49.404;7.734;2024-01-27T01:02:09;99053.88;;;-1.91;100.00
23616;BME280;11985;49.404;7.734;2024-01-27T01:07:12;99063.72;;;-1.82;100.00
23616;BME280;11985;49.404;7.734;2024-01-27T01:12:14;99059.47;;;-1.83;100.00
23616;BME280;11985;49.404;7.734;2024-01-27T01:17:16;99058.38;;;-1.95;100.00
23616;BME280;11985;49.404;7.734;2024-01-27T01:22:19;99059.97;;;-1.92;100.00
23616;BME280;11985;49.404;7.734;2024-01-27T01:27:21;99067.28;;;-2.00;100.00
23616;BME280;11985;49.404;7.734;2024-01-27T01:32:23;99070.78;;;-2.01;100.00
23616;BME280;11985;49.404;7.734;2024-01-27T01:37:26;99078.72;;;-2.04;100.00
23616;BME280;11985;49.404;7.734;2024-01-27T01:42:27;99084.03;;;-2.07;100.00
23616;BME280;11985;49.404;7.734;2024-01-27T01:47:29;99093.63;;;-2.09;100.00
23616;BME280;11985;49.404;7.734;2024-01-27T01:52:32;99102.09;;;-2.07;100.00
23616;BME280;11985;49.404;7.734;2024-01-27T01:57:34;99098.19;;;-2.15;100.00
23616;BME280;11985;49.404;7.734;2024-01-27T02:02:36;99105.47;;;-2.23;100.00
23616;BME280;11985;49.404;7.734;2024-01-27T02:07:39;99100.81;;;-2.32;100.00
23616;BME280;11985;49.404;7.734;2024-01-27T02:12:41;99097.13;;;-2.28;100.00
23616;BME280;11985;49.404;7.734;2024-01-27T02:17:42;99090.16;;;-2.26;100.00
23616;BME280;11985;49.404;7.734;2024-01-27T02:22:45;99097.09;;;-2.26;100.00
23616;BME280;11985;49.404;7.734;2024-01-27T02:27:48;99098.75;;;-2.25;100.00
23616;BME280;11985;49.404;7.734;2024-01-27T02:32:50;99113.88;;;-2.35;100.00
23616;BME280;11985;49.404;7.734;2024-01-27T02:37:52;99118.50;;;-2.42;100.00
23616;BME280;11985;49.404;7.734;2024-01-27T02:42:55;99113.34;;;-2.42;100.00
23616;BME280;11985;49.404;7.734;2024-01-27T02:47:56;99115.56;;;-2.51;100.00
23616;BME280;11985;49.404;7.734;2024-01-27T02:52:58;99125.28;;;-2.56;100.00
23616;BME280;11985;49.404;7.734;2024-01-27T02:58:01;99121.81;;;-2.55;100.00
23616;BME280;11985;49.404;7.734;2024-01-27T03:03:03;99121.50;;;-2.67;100.00
23616;BME280;11985;49.404;7.734;2024-01-27T03:08:05;99118.03;;;-2.66;100.00
23616;BME280;11985;49.404;7.734;2024-01-27T03:13:08;99123.25;;;-2.67;100.00
23616;BME280;11985;49.404;7.734;2024-01-27T03:18:10;99126.97;;;-2.73;100.00
23616;BME280;11985;49.404;7.734;2024-01-27T03:23:11;99132.13;;;-2.73;100.00
23616;BME280;11985;49.404;7.734;2024-01-27T03:28:14;99125.47;;;-2.77;100.00
23616;BME280;11985;49.404;7.734;2024-01-27T03:33:16;99127.28;;;-2.79;100.00
23616;BME280;11985;49.404;7.734;2024-01-27T03:38:18;99129.72;;;-2.76;100.00
23616;BME280;11985;49.404;7.734;2024-01-27T03:43:21;99132.59;;;-2.82;100.00
23616;BME280;11985;49.404;7.734;2024-01-27T03:48:22;99134.88;;;-2.93;100.00
23616;BME280;11985;49.404;7.734;2024-01-27T03:53:24;99141.84;;;-2.95;100.00
23616;BME280;11985;49.404;7.734;2024-01-27T03:58:27;99142.63;;;-2.93;100.00
23616;BME280;11985;49.404;7.734;2024-01-27T04:03:28;99146.25;;;-2.97;100.00
23616;BME280;11985;49.404;7.734;2024-01-27T04:08:30;99148.97;;;-3.00;100.00
23616;BME280;11985;49.404;7.734;2024-01-27T04:13:33;99159.56;;;-3.06;100.00
23616;BME280;11985;49.404;7.734;2024-01-27T04:18:35;99158.81;;;-3.08;100.00
23616;BME280;11985;49.404;7.734;2024-01-27T04:23:37;99160.78;;;-3.13;100.00
23616;BME280;11985;49.404;7.734;2024-01-27T04:28:40;99160.03;;;-3.15;100.00
23616;BME280;11985;49.404;7.734;2024-01-27T04:33:41;99160.69;;;-3.12;100.00
23616;BME280;11985;49.404;7.734;2024-01-27T04:38:43;99155.53;;;-3.12;100.00
23616;BME280;11985;49.404;7.734;2024-01-27T04:43:46;99156.63;;;-2.99;100.00
23616;BME280;11985;49.404;7.734;2024-01-27T04:48:48;99154.59;;;-2.75;100.00
23616;BME280;11985;49.404;7.734;2024-01-27T04:53:50;99156.34;;;-2.75;100.00
23616;BME280;11985;49.404;7.734;2024-01-27T04:58:53;99165.50;;;-2.52;100.00
23616;BME280;11985;49.404;7.734;2024-01-27T05:03:54;99163.22;;;-2.41;100.00
23616;BME280;11985;49.404;7.734;2024-01-27T05:08:56;99164.41;;;-2.31;100.00
23616;BME280;11985;49.404;7.734;2024-01-27T05:13:59;99149.31;;;-2.21;100.00
23616;BME280;11985;49.404;7.734;2024-01-27T05:19:01;99147.84;;;-2.09;100.00
23616;BME280;11985;49.404;7.734;2024-01-27T05:24:03;99146.16;;;-2.10;100.00
23616;BME280;11985;49.404;7.734;2024-01-27T05:29:06;99159.09;;;-2.28;100.00
23616;BME280;11985;49.404;7.734;2024-01-27T05:34:09;99156.09;;;-2.53;100.00
23616;BME280;11985;49.404;7.734;2024-01-27T05:39:10;99152.31;;;-2.63;100.00
23616;BME280;11985;49.404;7.734;2024-01-27T05:44:13;99158.81;;;-2.39;100.00
23616;BME280;11985;49.404;7.734;2024-01-27T05:49:15;99165.88;;;-2.43;100.00
23616;BME280;11985;49.404;7.734;2024-01-27T05:54:17;99171.19;;;-2.46;100.00
23616;BME280;11985;49.404;7.734;2024-01-27T05:59:20;99175.75;;;-2.51;100.00
23616;BME280;11985;49.404;7.734;2024-01-27T06:04:21;99172.56;;;-2.56;100.00
23616;BME280;11985;49.404;7.734;2024-01-27T06:09:23;99185.09;;;-2.66;100.00
23616;BME280;11985;49.404;7.734;2024-01-27T06:14:26;99186.75;;;-2.64;100.00
23616;BME280;11985;49.404;7.734;2024-01-27T06:19:27;99194.28;;;-2.77;100.00
23616;BME280;11985;49.404;7.734;2024-01-27T06:24:29;99192.44;;;-2.93;100.00
23616;BME280;11985;49.404;7.734;2024-01-27T06:29:32;99195.09;;;-2.94;100.00
23616;BME280;11985;49.404;7.734;2024-01-27T06:34:33;99192.53;;;-2.77;100.00
23616;BME280;11985;49.404;7.734;2024-01-27T06:39:35;99185.53;;;-2.75;100.00
23616;BME280;11985;49.404;7.734;2024-01-27T06:44:38;99186.28;;;-2.90;100.00
23616;BME280;11985;49.404;7.734;2024-01-27T06:49:39;99198.13;;;-2.86;100.00
23616;BME280;11985;49.404;7.734;2024-01-27T06:54:41;99183.34;;;-2.82;100.00
23616;BME280;11985;49.404;7.734;2024-01-27T06:59:46;99189.16;;;-2.96;100.00
23616;BME280;11985;49.404;7.734;2024-01-27T07:04:48;99192.00;;;-3.20;100.00
23616;BME280;11985;49.404;7.734;2024-01-27T07:09:50;99190.78;;;-3.12;100.00
23616;BME280;11985;49.404;7.734;2024-01-27T07:14:53;99192.19;;;-3.05;100.00
23616;BME280;11985;49.404;7.734;2024-01-27T07:19:55;99193.84;;;-3.04;100.00
23616;BME280;11985;49.404;7.734;2024-01-27T07:24:56;99182.84;;;-3.08;100.00
23616;BME280;11985;49.404;7.734;2024-01-27T07:29:59;99200.16;;;-2.93;100.00
23616;BME280;11985;49.404;7.734;2024-01-27T07:35:01;99199.53;;;-2.98;100.00
23616;BME280;11985;49.404;7.734;2024-01-27T07:40:07;99198.66;;;-2.79;100.00
23616;BME280;11985;49.404;7.734;2024-01-27T07:45:10;99189.88;;;-2.75;100.00
23616;BME280;11985;49.404;7.734;2024-01-27T07:50:12;99182.22;;;-2.77;100.00
23616;BME280;11985;49.404;7.734;2024-01-27T07:55:14;99194.31;;;-2.79;100.00
23616;BME280;11985;49.404;7.734;2024-01-27T08:00:19;99199.16;;;-2.90;100.00
23616;BME280;11985;49.404;7.734;2024-01-27T08:05:21;99193.09;;;-2.89;100.00
23616;BME280;11985;49.404;7.734;2024-01-27T08:10:22;99197.91;;;-2.81;100.00
23616;BME280;11985;49.404;7.734;2024-01-27T08:15:25;99201.31;;;-2.81;100.00
23616;BME280;11985;49.404;7.734;2024-01-27T08:20:27;99210.41;;;-2.74;100.00
23616;BME280;11985;49.404;7.734;2024-01-27T08:25:28;99217.72;;;-2.47;100.00
23616;BME280;11985;49.404;7.734;2024-01-27T08:30:31;99211.09;;;-2.18;100.00
23616;BME280;11985;49.404;7.734;2024-01-27T08:35:33;99210.91;;;-1.98;100.00
23616;BME280;11985;49.404;7.734;2024-01-27T08:40:35;99214.13;;;-1.77;100.00
23616;BME280;11985;49.404;7.734;2024-01-27T08:45:38;99216.72;;;-1.77;100.00
23616;BME280;11985;49.404;7.734;2024-01-27T08:50:40;99203.69;;;-1.75;100.00
23616;BME280;11985;49.404;7.734;2024-01-27T08:55:42;99208.72;;;-1.56;100.00
23616;BME280;11985;49.404;7.734;2024-01-27T09:00:45;99228.56;;;-1.41;100.00
23616;BME280;11985;49.404;7.734;2024-01-27T09:05:46;99217.06;;;-1.20;100.00
23616;BME280;11985;49.404;7.734;2024-01-27T09:10:49;99220.31;;;-1.00;100.00
23616;BME280;11985;49.404;7.734;2024-01-27T09:15:52;99207.19;;;-0.82;100.00
23616;BME280;11985;49.404;7.734;2024-01-27T09:20:53;99206.72;;;-0.58;100.00
23616;BME280;11985;49.404;7.734;2024-01-27T09:25:55;99201.97;;;-0.36;100.00
23616;BME280;11985;49.404;7.734;2024-01-27T09:30:58;99193.22;;;-0.05;100.00
23616;BME280;11985;49.404;7.734;2024-01-27T09:36:00;99201.56;;;0.29;100.00
23616;BME280;11985;49.404;7.734;2024-01-27T09:41:02;99203.28;;;0.57;100.00
23616;BME280;11985;49.404;7.734;2024-01-27T09:46:05;99199.09;;;0.55;100.00
23616;BME280;11985;49.404;7.734;2024-01-27T09:51:09;99198.69;;;0.75;100.00
23616;BME280;11985;49.404;7.734;2024-01-27T09:56:12;99216.22;;;0.98;100.00
23616;BME280;11985;49.404;7.734;2024-01-27T10:01:20;99200.75;;;1.24;100.00
23616;BME280;11985;49.404;7.734;2024-01-27T10:06:22;99205.38;;;1.46;100.00
23616;BME280;11985;49.404;7.734;2024-01-27T10:11:23;99197.41;;;1.62;100.00
23616;BME280;11985;49.404;7.734;2024-01-27T10:16:27;99207.81;;;1.62;100.00
23616;BME280;11985;49.404;7.734;2024-01-27T10:21:29;99209.47;;;1.63;100.00
23616;BME280;11985;49.404;7.734;2024-01-27T10:26:31;99200.53;;;1.92;100.00
23616;BME280;11985;49.404;7.734;2024-01-27T10:31:35;99206.69;;;2.17;100.00
23616;BME280;11985;49.404;7.734;2024-01-27T10:36:40;99205.19;;;2.38;100.00
23616;BME280;11985;49.404;7.734;2024-01-27T10:41:44;99196.94;;;2.57;100.00
23616;BME280;11985;49.404;7.734;2024-01-27T10:46:49;99198.47;;;2.72;100.00
23616;BME280;11985;49.404;7.734;2024-01-27T10:51:53;99206.75;;;2.90;100.00
23616;BME280;11985;49.404;7.734;2024-01-27T10:56:56;99198.75;;;3.04;100.00
23616;BME280;11985;49.404;7.734;2024-01-27T11:02:00;99188.50;;;3.14;100.00
23616;BME280;11985;49.404;7.734;2024-01-27T11:07:03;99191.00;;;3.15;100.00
23616;BME280;11985;49.404;7.734;2024-01-27T11:12:06;99185.38;;;3.33;100.00
23616;BME280;11985;49.404;7.734;2024-01-27T11:17:10;99165.50;;;3.67;100.00
23616;BME280;11985;49.404;7.734;2024-01-27T11:22:24;99164.44;;;3.81;100.00
23616;BME280;11985;49.404;7.734;2024-01-27T11:27:27;99166.38;;;4.12;100.00
23616;BME280;11985;49.404;7.734;2024-01-27T11:32:32;99147.38;;;4.44;100.00
23616;BME280;11985;49.404;7.734;2024-01-27T11:37:34;99150.56;;;4.59;100.00
23616;BME280;11985;49.404;7.734;2024-01-27T11:42:35;99148.53;;;4.62;100.00
23616;BME280;11985;49.404;7.734;2024-01-27T11:47:39;99139.75;;;4.63;100.00
23616;BME280;11985;49.404;7.734;2024-01-27T11:52:40;99142.38;;;4.63;100.00
23616;BME280;11985;49.404;7.734;2024-01-27T11:57:42;99144.72;;;4.78;100.00
23616;BME280;11985;49.404;7.734;2024-01-27T12:02:50;99126.91;;;4.71;100.00
23616;BME280;11985;49.404;7.734;2024-01-27T12:07:51;99125.47;;;4.79;100.00
23616;BME280;11985;49.404;7.734;2024-01-27T12:12:53;99128.78;;;4.81;100.00
23616;BME280;11985;49.404;7.734;2024-01-27T12:17:56;99126.78;;;4.84;100.00
23616;BME280;11985;49.404;7.734;2024-01-27T12:23:04;99122.56;;;4.93;100.00
23616;BME280;11985;49.404;7.734;2024-01-27T12:28:06;99137.19;;;5.16;100.00
23616;BME280;11985;49.404;7.734;2024-01-27T12:33:12;99127.13;;;5.33;100.00
23616;BME280;11985;49.404;7.734;2024-01-27T12:38:14;99129.34;;;5.27;100.00
23616;BME280;11985;49.404;7.734;2024-01-27T12:43:15;99132.13;;;5.36;100.00
23616;BME280;11985;49.404;7.734;2024-01-27T12:48:18;99121.47;;;5.48;100.00
23616;BME280;11985;49.404;7.734;2024-01-27T12:53:20;99122.63;;;5.55;100.00
23616;BME280;11985;49.404;7.734;2024-01-27T12:58:21;99116.75;;;5.63;100.00
23616;BME280;11985;49.404;7.734;2024-01-27T13:03:24;99116.31;;;5.79;100.00
23616;BME280;11985;49.404;7.734;2024-01-27T13:08:26;99121.09;;;5.95;100.00
23616;BME280;11985;49.404;7.734;2024-01-27T13:13:28;99110.22;;;5.99;100.00
23616;BME280;11985;49.404;7.734;2024-01-27T13:18:31;99102.50;;;5.98;100.00
23616;BME280;11985;49.404;7.734;2024-01-27T13:23:32;99103.94;;;6.12;100.00
23616;BME280;11985;49.404;7.734;2024-01-27T13:28:34;99082.09;;;6.32;100.00
23616;BME280;11985;49.404;7.734;2024-01-27T13:33:37;99079.94;;;6.47;100.00
23616;BME280;11985;49.404;7.734;2024-01-27T13:38:38;99075.91;;;6.43;100.00
23616;BME280;11985;49.404;7.734;2024-01-27T13:43:40;99069.03;;;6.42;100.00
23616;BME280;11985;49.404;7.734;2024-01-27T13:48:43;99072.19;;;6.35;100.00
23616;BME280;11985;49.404;7.734;2024-01-27T13:53:46;99069.31;;;6.39;100.00
23616;BME280;11985;49.404;7.734;2024-01-27T13:58:47;99057.59;;;6.43;100.00
23616;BME280;11985;49.404;7.734;2024-01-27T14:03:50;99050.69;;;6.22;100.00
23616;BME280;11985;49.404;7.734;2024-01-27T14:08:52;99047.75;;;6.16;100.00
23616;BME280;11985;49.404;7.734;2024-01-27T14:13:54;99028.09;;;6.21;100.00
23616;BME280;11985;49.404;7.734;2024-01-27T14:18:56;99024.09;;;6.27;100.00
23616;BME280;11985;49.404;7.734;2024-01-27T14:23:58;99027.16;;;6.22;100.00
23616;BME280;11985;49.404;7.734;2024-01-27T14:29:05;99031.28;;;6.34;100.00
23616;BME280;11985;49.404;7.734;2024-01-27T14:34:08;99037.66;;;6.61;100.00
23616;BME280;11985;49.404;7.734;2024-01-27T14:39:10;99037.78;;;6.69;100.00
23616;BME280;11985;49.404;7.734;2024-01-27T14:44:11;99042.34;;;6.67;100.00
23616;BME280;11985;49.404;7.734;2024-01-27T14:49:15;99035.16;;;6.59;100.00
23616;BME280;11985;49.404;7.734;2024-01-27T14:54:16;99031.72;;;6.49;100.00
23616;BME280;11985;49.404;7.734;2024-01-27T14:59:19;99027.97;;;6.32;100.00
23616;BME280;11985;49.404;7.734;2024-01-27T15:04:22;99027.94;;;6.13;100.00
23616;BME280;11985;49.404;7.734;2024-01-27T15:09:26;99025.69;;;5.99;100.00
23616;BME280;11985;49.404;7.734;2024-01-27T15:14:27;99025.31;;;5.82;100.00
23616;BME280;11985;49.404;7.734;2024-01-27T15:19:30;99033.03;;;5.74;100.00
23616;BME280;11985;49.404;7.734;2024-01-27T15:24:32;99035.44;;;5.66;100.00
23616;BME280;11985;49.404;7.734;2024-01-27T15:29:37;99043.44;;;5.65;100.00
23616;BME280;11985;49.404;7.734;2024-01-27T15:34:40;99040.56;;;5.68;100.00
23616;BME280;11985;49.404;7.734;2024-01-27T15:39:41;99053.34;;;5.61;100.00
23616;BME280;11985;49.404;7.734;2024-01-27T15:44:44;99048.28;;;5.39;100.00
23616;BME280;11985;49.404;7.734;2024-01-27T15:49:47;99044.84;;;5.17;100.00
23616;BME280;11985;49.404;7.734;2024-01-27T15:54:53;99045.47;;;4.89;100.00
23616;BME280;11985;49.404;7.734;2024-01-27T15:59:55;99053.25;;;4.68;100.00
23616;BME280;11985;49.404;7.734;2024-01-27T16:04:58;99039.84;;;4.40;100.00
23616;BME280;11985;49.404;7.734;2024-01-27T16:09:59;99038.00;;;4.09;100.00
23616;BME280;11985;49.404;7.734;2024-01-27T16:15:03;99051.19;;;3.74;100.00
23616;BME280;11985;49.404;7.734;2024-01-27T16:20:08;99055.44;;;3.41;100.00
23616;BME280;11985;49.404;7.734;2024-01-27T16:25:09;99042.84;;;3.12;100.00
23616;BME280;11985;49.404;7.734;2024-01-27T16:30:11;99054.38;;;2.97;100.00
23616;BME280;11985;49.404;7.734;2024-01-27T16:35:14;99053.06;;;2.91;100.00
23616;BME280;11985;49.404;7.734;2024-01-27T16:40:16;99057.63;;;2.77;100.00
23616;BME280;11985;49.404;7.734;2024-01-27T16:45:19;99048.78;;;2.55;100.00
23616;BME280;11985;49.404;7.734;2024-01-27T16:50:22;99057.19;;;2.35;100.00
23616;BME280;11985;49.404;7.734;2024-01-27T16:55:23;99047.81;;;2.08;100.00
23616;BME280;11985;49.404;7.734;2024-01-27T17:00:25;99052.03;;;1.85;100.00
23616;BME280;11985;49.404;7.734;2024-01-27T17:05:28;99040.84;;;1.59;100.00
23616;BME280;11985;49.404;7.734;2024-01-27T17:10:37;99046.59;;;1.39;100.00
23616;BME280;11985;49.404;7.734;2024-01-27T17:15:39;99038.47;;;1.18;100.00
23616;BME280;11985;49.404;7.734;2024-01-27T17:20:44;99040.31;;;1.03;100.00
23616;BME280;11985;49.404;7.734;2024-01-27T17:25:45;99037.09;;;0.87;100.00
23616;BME280;11985;49.404;7.734;2024-01-27T17:30:47;99036.66;;;0.93;100.00
23616;BME280;11985;49.404;7.734;2024-01-27T17:35:51;99042.19;;;1.01;100.00
23616;BME280;11985;49.404;7.734;2024-01-27T17:40:53;99041.44;;;0.99;100.00
23616;BME280;11985;49.404;7.734;2024-01-27T17:45:54;99040.63;;;0.86;100.00
23616;BME280;11985;49.404;7.734;2024-01-27T17:50:57;99042.03;;;0.77;100.00
23616;BME280;11985;49.404;7.734;2024-01-27T17:55:59;99044.19;;;0.71;100.00
23616;BME280;11985;49.404;7.734;2024-01-27T18:01:00;99054.44;;;0.60;100.00
23616;BME280;11985;49.404;7.734;2024-01-27T18:06:04;99042.38;;;0.46;100.00
23616;BME280;11985;49.404;7.734;2024-01-27T18:11:08;99044.63;;;0.38;100.00
23616;BME280;11985;49.404;7.734;2024-01-27T18:16:10;99047.50;;;0.33;100.00
23616;BME280;11985;49.404;7.734;2024-01-27T18:21:13;99040.31;;;0.24;100.00
23616;BME280;11985;49.404;7.734;2024-01-27T18:26:14;99042.16;;;0.22;100.00
23616;BME280;11985;49.404;7.734;2024-01-27T18:31:16;99048.94;;;0.24;100.00
23616;BME280;11985;49.404;7.734;2024-01-27T18:36:20;99046.47;;;0.36;100.00
23616;BME280;11985;49.404;7.734;2024-01-27T18:41:22;99041.97;;;0.25;100.00
23616;BME280;11985;49.404;7.734;2024-01-27T18:46:23;99041.81;;;0.14;100.00
23616;BME280;11985;49.404;7.734;2024-01-27T18:51:26;99043.16;;;0.07;100.00
23616;BME280;11985;49.404;7.734;2024-01-27T18:56:28;99039.72;;;0.06;100.00
23616;BME280;11985;49.404;7.734;2024-01-27T19:01:30;99034.47;;;-0.07;100.00
23616;BME280;11985;49.404;7.734;2024-01-27T19:06:33;99043.94;;;-0.20;100.00
23616;BME280;11985;49.404;7.734;2024-01-27T19:11:36;99045.03;;;-0.24;100.00
23616;BME280;11985;49.404;7.734;2024-01-27T19:16:39;99036.00;;;-0.31;100.00
23616;BME280;11985;49.404;7.734;2024-01-27T19:21:42;99030.53;;;-0.41;100.00
23616;BME280;11985;49.404;7.734;2024-01-27T19:26:44;99035.09;;;-0.44;100.00
23616;BME280;11985;49.404;7.734;2024-01-27T19:31:46;99038.69;;;-0.33;100.00
23616;BME280;11985;49.404;7.734;2024-01-27T19:36:49;99036.34;;;-0.23;100.00
23616;BME280;11985;49.404;7.734;2024-01-27T19:41:51;99040.63;;;-0.22;100.00
23616;BME280;11985;49.404;7.734;2024-01-27T19:46:52;99032.09;;;-0.24;100.00
23616;BME280;11985;49.404;7.734;2024-01-27T19:51:55;99034.13;;;-0.29;100.00
23616;BME280;11985;49.404;7.734;2024-01-27T19:56:57;99027.28;;;-0.30;100.00
23616;BME280;11985;49.404;7.734;2024-01-27T20:01:59;99026.47;;;-0.31;100.00
23616;BME280;11985;49.404;7.734;2024-01-27T20:07:02;99034.13;;;-0.29;100.00
23616;BME280;11985;49.404;7.734;2024-01-27T20:12:04;99033.94;;;-0.26;100.00
23616;BME280;11985;49.404;7.734;2024-01-27T20:17:06;99028.94;;;-0.29;100.00
23616;BME280;11985;49.404;7.734;2024-01-27T20:22:09;99023.97;;;-0.32;100.00
23616;BME280;11985;49.404;7.734;2024-01-27T20:27:11;99019.53;;;-0.30;100.00
23616;BME280;11985;49.404;7.734;2024-01-27T20:32:13;99028.38;;;-0.20;100.00
23616;BME280;11985;49.404;7.734;2024-01-27T20:37:16;99019.13;;;-0.24;100.00
23616;BME280;11985;49.404;7.734;2024-01-27T20:42:18;99016.56;;;-0.24;100.00
23616;BME280;11985;49.404;7.734;2024-01-27T20:47:20;99014.56;;;-0.33;100.00
23616;BME280;11985;49.404;7.734;2024-01-27T20:52:23;99007.34;;;-0.42;100.00
23616;BME280;11985;49.404;7.734;2024-01-27T20:57:25;99009.47;;;-0.49;100.00
23616;BME280;11985;49.404;7.734;2024-01-27T21:02:26;99004.94;;;-0.60;100.00
23616;BME280;11985;49.404;7.734;2024-01-27T21:07:29;99010.88;;;-0.72;100.00
23616;BME280;11985;49.404;7.734;2024-01-27T21:12:31;98992.19;;;-0.77;100.00
23616;BME280;11985;49.404;7.734;2024-01-27T21:17:33;98989.06;;;-0.82;100.00
23616;BME280;11985;49.404;7.734;2024-01-27T21:22:36;98982.38;;;-0.86;100.00
23616;BME280;11985;49.404;7.734;2024-01-27T21:27:37;98965.00;;;-0.84;100.00
23616;BME280;11985;49.404;7.734;2024-01-27T21:32:39;98971.13;;;-0.71;100.00
23616;BME280;11985;49.404;7.734;2024-01-27T21:37:42;98972.22;;;-0.75;100.00
23616;BME280;11985;49.404;7.734;2024-01-27T21:42:44;98964.44;;;-0.89;100.00
23616;BME280;11985;49.404;7.734;2024-01-27T21:47:47;98957.25;;;-0.98;100.00
23616;BME280;11985;49.404;7.734;2024-01-27T21:52:51;98943.13;;;-1.07;100.00
23616;BME280;11985;49.404;7.734;2024-01-27T21:57:52;98943.38;;;-1.12;100.00
23616;BME280;11985;49.404;7.734;2024-01-27T22:02:54;98944.03;;;-1.22;100.00
23616;BME280;11985;49.404;7.734;2024-01-27T22:07:57;98938.13;;;-1.39;100.00
23616;BME280;11985;49.404;7.734;2024-01-27T22:12:59;98930.06;;;-1.48;100.00
23616;BME280;11985;49.404;7.734;2024-01-27T22:18:01;98927.44;;;-1.63;100.00
23616;BME280;11985;49.404;7.734;2024-01-27T22:23:04;98931.19;;;-1.68;100.00
23616;BME280;11985;49.404;7.734;2024-01-27T22:28:05;98927.56;;;-1.80;100.00
23616;BME280;11985;49.404;7.734;2024-01-27T22:33:07;98933.56;;;-1.79;100.00
23616;BME280;11985;49.404;7.734;2024-01-27T22:38:12;98928.22;;;-1.76;100.00
23616;BME280;11985;49.404;7.734;2024-01-27T22:43:14;98928.50;;;-1.81;100.00
23616;BME280;11985;49.404;7.734;2024-01-27T22:48:15;98933.75;;;-1.82;100.00
23616;BME280;11985;49.404;7.734;2024-01-27T22:53:19;98929.41;;;-1.82;100.00
23616;BME280;11985;49.404;7.734;2024-01-27T22:58:21;98927.41;;;-1.77;100.00
23616;BME280;11985;49.404;7.734;2024-01-27T23:03:23;98924.06;;;-1.79;100.00
23616;BME280;11985;49.404;7.734;2024-01-27T23:08:26;98923.50;;;-1.84;100.00
23616;BME280;11985;49.404;7.734;2024-01-27T23:13:28;98912.78;;;-1.92;100.00
23616;BME280;11985;49.404;7.734;2024-01-27T23:18:29;98913.13;;;-1.98;100.00
23616;BME280;11985;49.404;7.734;2024-01-27T23:23:32;98900.47;;;-2.03;100.00
23616;BME280;11985;49.404;7.734;2024-01-27T23:28:34;98902.97;;;-2.01;100.00
23616;BME280;11985;49.404;7.734;2024-01-27T23:33:35;98896.72;;;-1.97;100.00
23616;BME280;11985;49.404;7.734;2024-01-27T23:38:38;98892.28;;;-1.95;100.00
23616;BME280;11985;49.404;7.734;2024-01-27T23:43:40;98890.19;;;-1.89;100.00
23616;BME280;11985;49.404;7.734;2024-01-27T23:48:42;98887.44;;;-1.86;100.00
23616;BME280;11985;49.404;7.734;2024-01-27T23:53:45;98876.09;;;-1.83;100.00
23616;BME280;11985;49.404;7.734;2024-01-27T23:58:47;98869.44;;;-1.87;100.00
